createdAt,value
2019-05-13T00:01:31.488Z,101701.05
2019-05-13T00:04:05.285Z,101703.51
2019-05-13T00:10:04.086Z,101700.28
2019-05-13T00:12:55.025Z,101706.25
2019-05-13T00:15:45.573Z,101711.99
2019-05-13T00:18:36.477Z,101709.68
2019-05-13T00:21:08.674Z,101706.79
2019-05-13T00:24:44.304Z,101706.75
2019-05-13T00:26:56.712Z,101708.40
2019-05-13T00:29:31.088Z,101707.55
2019-05-13T00:35:33.855Z,101708.63
2019-05-13T00:38:06.667Z,101708.89
2019-05-13T00:46:54.239Z,101714.04
2019-05-13T00:49:27.682Z,101719.66
2019-05-13T00:52:00.023Z,101724.86
2019-05-13T00:54:34.267Z,101711.30
2019-05-13T00:57:08.982Z,101714.56
2019-05-13T01:02:40.440Z,101714.27
2019-05-13T01:05:14.384Z,101708.05
2019-05-13T01:07:45.734Z,101708.05
2019-05-13T01:10:17.458Z,101710.38
2019-05-13T01:12:49.285Z,101716.44
2019-05-13T01:18:33.939Z,101711.09
2019-05-13T01:21:05.287Z,101708.13
2019-05-13T01:24:16.504Z,101707.20
2019-05-13T01:27:06.981Z,101711.14
2019-05-13T01:32:55.578Z,101730.00
2019-05-13T01:38:43.616Z,101712.66
2019-05-13T01:44:10.162Z,101715.78
2019-05-13T01:46:43.719Z,101715.37
2019-05-13T01:49:18.527Z,101717.45
2019-05-13T01:52:08.280Z,101724.47
2019-05-13T01:54:40.137Z,101724.47
2019-05-13T01:57:34.273Z,101719.41
2019-05-13T02:00:26.020Z,101720.75
2019-05-13T02:02:58.059Z,101723.70
2019-05-13T02:05:48.808Z,101731.44
2019-05-13T02:08:20.592Z,101733.77
2019-05-13T02:13:41.553Z,101736.21
2019-05-13T02:19:05.555Z,101735.92
2019-05-13T02:21:56.145Z,101743.84
2019-05-13T02:24:27.893Z,101737.88
2019-05-13T02:26:59.689Z,101737.86
2019-05-13T02:29:50.482Z,101734.50
2019-05-13T02:32:23.591Z,101744.00
2019-05-13T02:35:15.632Z,101743.47
2019-05-13T02:38:19.776Z,101739.09
2019-05-13T02:40:42.895Z,101733.05
2019-05-13T02:43:13.755Z,101744.25
2019-05-13T02:45:45.806Z,101743.61
2019-05-13T02:48:23.379Z,101743.53
2019-05-13T02:51:04.427Z,101747.89
2019-05-13T02:53:39.227Z,101744.98
2019-05-13T02:56:32.825Z,101751.31
2019-05-13T02:59:04.175Z,101751.31
2019-05-13T03:01:37.407Z,101751.56
2019-05-13T03:15:56.805Z,101753.77
2019-05-13T03:18:28.609Z,101746.73
2019-05-13T03:21:03.441Z,101751.11
2019-05-13T03:23:33.973Z,101746.98
2019-05-13T03:26:05.797Z,101746.98
2019-05-13T03:28:37.646Z,101746.36
2019-05-13T03:31:36.077Z,101757.64
2019-05-13T03:34:06.589Z,101748.17
2019-05-13T03:36:48.639Z,101750.74
2019-05-13T03:42:33.267Z,101759.70
2019-05-13T03:45:23.407Z,101759.70
2019-05-13T03:47:55.716Z,101769.52
2019-05-13T03:50:30.650Z,101784.66
2019-05-13T03:53:17.783Z,101790.83
2019-05-13T03:56:23.638Z,101790.83
2019-05-13T03:59:27.655Z,101780.66
2019-05-13T04:02:42.795Z,101783.08
2019-05-13T04:05:46.509Z,101787.80
2019-05-13T04:08:22.838Z,101782.74
2019-05-13T04:10:54.064Z,101784.22
2019-05-13T04:13:44.783Z,101787.83
2019-05-13T04:16:16.596Z,101782.55
2019-05-13T04:21:42.980Z,101790.99
2019-05-13T04:24:13.297Z,101791.53
2019-05-13T04:26:45.145Z,101804.75
2019-05-13T04:29:16.926Z,101805.03
2019-05-13T04:31:48.710Z,101805.03
2019-05-13T04:34:23.153Z,101801.02
2019-05-13T04:36:56.526Z,101811.27
2019-05-13T04:39:44.768Z,101815.67
2019-05-13T04:45:14.406Z,101822.70
2019-05-13T04:50:48.703Z,101821.91
2019-05-13T04:54:02.681Z,101821.91
2019-05-13T04:56:35.455Z,101821.81
2019-05-13T04:59:07.618Z,101819.14
2019-05-13T05:05:52.907Z,101824.27
2019-05-13T05:09:12.614Z,101826.55
2019-05-13T05:12:23.115Z,101824.05
2019-05-13T05:19:08.061Z,101841.30
2019-05-13T05:25:29.253Z,101840.80
2019-05-13T05:28:37.342Z,101840.80
2019-05-13T05:31:47.162Z,101845.45
2019-05-13T05:38:47.405Z,101850.47
2019-05-13T05:41:51.431Z,101850.47
2019-05-13T05:48:26.874Z,101844.79
2019-05-13T05:56:35.841Z,101844.41
2019-05-13T06:08:37.859Z,101850.05
2019-05-13T06:14:33.888Z,101854.30
2019-05-13T06:17:15.464Z,101847.56
2019-05-13T06:19:26.736Z,101842.33
2019-05-13T06:25:24.814Z,101848.41
2019-05-13T06:28:21.719Z,101846.60
2019-05-13T06:31:37.213Z,101846.89
2019-05-13T06:34:12.419Z,101849.67
2019-05-13T06:37:04.437Z,101846.48
2019-05-13T06:39:55.232Z,101850.75
2019-05-13T06:48:35.852Z,101855.91
2019-05-13T06:51:22.360Z,101861.09
2019-05-13T06:54:37.234Z,101858.92
2019-05-13T06:56:58.923Z,101852.89
2019-05-13T06:59:31.579Z,101858.15
2019-05-13T07:02:04.289Z,101861.20
2019-05-13T07:04:58.671Z,101862.70
2019-05-13T07:10:21.639Z,101851.88
2019-05-13T07:12:57.734Z,101866.11
2019-05-13T07:28:02.113Z,101857.81
2019-05-13T07:30:53.495Z,101856.88
2019-05-13T07:37:21.884Z,101824.48
2019-05-13T07:40:16.064Z,101850.48
2019-05-13T07:45:52.183Z,101860.44
2019-05-13T07:48:46.247Z,101851.28
2019-05-13T07:51:18.405Z,101858.42
2019-05-13T07:54:32.981Z,101863.73
2019-05-13T08:02:57.671Z,101872.52
2019-05-13T08:06:11.143Z,101853.12
2019-05-13T08:12:16.349Z,101861.36
2019-05-13T08:17:34.766Z,101862.02
2019-05-13T08:32:31.908Z,101857.44
2019-05-13T08:35:09.018Z,101852.99
2019-05-13T08:38:02.286Z,101870.92
2019-05-13T08:44:44.441Z,101859.67
2019-05-13T08:50:41.846Z,101845.63
2019-05-13T08:53:35.345Z,101850.28
2019-05-13T08:56:38.139Z,101837.80
2019-05-13T09:05:36.848Z,101842.20
2019-05-13T09:08:17.357Z,101840.14
2019-05-13T09:11:26.915Z,101843.73
2019-05-13T09:17:31.835Z,101827.69
2019-05-13T09:20:22.164Z,101819.89
2019-05-13T09:23:11.689Z,101817.75
2019-05-13T09:32:24.555Z,101826.58
2019-05-13T09:43:55.641Z,101836.55
2019-05-13T09:46:46.610Z,101824.52
2019-05-13T09:49:32.470Z,101828.95
2019-05-13T09:55:30.270Z,101818.52
2019-05-13T09:58:11.898Z,101815.50
2019-05-13T10:00:43.406Z,101818.20
2019-05-13T10:03:58.188Z,101816.11
2019-05-13T10:09:21.968Z,101813.05
2019-05-13T10:11:56.060Z,101794.05
2019-05-13T10:17:43.257Z,101799.67
2019-05-13T10:20:48.325Z,101809.91
2019-05-13T10:29:33.881Z,101801.09
2019-05-13T10:32:25.423Z,101800.24
2019-05-13T10:35:38.077Z,101785.61
2019-05-13T10:38:27.809Z,101806.75
2019-05-13T10:44:25.910Z,101801.80
2019-05-13T10:47:02.519Z,101800.80
2019-05-13T10:49:34.434Z,101784.69
2019-05-13T10:52:47.252Z,101777.27
2019-05-13T11:02:02.134Z,101776.47
2019-05-13T11:07:55.928Z,101775.16
2019-05-13T11:10:43.875Z,101767.09
2019-05-13T11:17:25.548Z,101762.46
2019-05-13T11:23:23.647Z,101754.93
2019-05-13T11:26:03.149Z,101765.66
2019-05-13T11:28:54.119Z,101760.28
2019-05-13T11:31:47.837Z,101754.53
2019-05-13T11:34:42.002Z,101732.50
2019-05-13T11:37:52.692Z,101732.50
2019-05-13T11:41:22.896Z,101747.35
2019-05-13T11:44:43.022Z,101749.77
2019-05-13T11:47:18.312Z,101738.30
2019-05-13T11:50:02.261Z,101747.57
2019-05-13T11:53:30.193Z,101753.28
2019-05-13T11:58:53.330Z,101742.77
2019-05-13T12:04:43.074Z,101719.05
2019-05-13T12:07:32.948Z,101719.27
2019-05-13T12:10:25.472Z,101717.06
2019-05-13T12:16:03.784Z,101706.08
2019-05-13T12:18:41.400Z,101714.28
2019-05-13T12:21:12.296Z,101714.08
2019-05-13T12:24:11.006Z,101713.39
2019-05-13T12:27:25.074Z,101708.28
2019-05-13T12:30:02.937Z,101707.45
2019-05-13T12:32:52.985Z,101707.05
2019-05-13T12:39:01.207Z,101688.98
2019-05-13T12:42:03.413Z,101700.84
2019-05-13T12:48:15.431Z,101693.54
2019-05-13T13:18:56.176Z,101662.59
2019-05-13T13:21:39.744Z,101638.22
2019-05-13T13:25:23.720Z,101642.09
2019-05-13T13:28:09.989Z,101649.30
2019-05-13T13:30:55.148Z,101650.69
2019-05-13T13:34:16.341Z,101648.17
2019-05-13T13:43:36.698Z,101630.99
2019-05-13T13:46:25.048Z,101643.78
2019-05-13T13:48:58.426Z,101623.27
2019-05-13T13:51:58.371Z,101636.24
2019-05-13T13:55:08.779Z,101635.80
2019-05-13T13:59:23.409Z,101634.98
2019-05-13T14:13:36.044Z,101613.09
2019-05-13T14:20:12.129Z,101628.16
2019-05-13T14:26:24.220Z,101609.59
2019-05-13T14:29:48.269Z,101606.30
2019-05-13T14:32:14.750Z,101597.66
2019-05-13T14:35:08.825Z,101610.12
2019-05-13T14:37:59.253Z,101600.58
2019-05-13T14:43:24.530Z,101591.73
2019-05-13T14:45:56.459Z,101574.64
2019-05-13T14:55:02.623Z,101591.12
2019-05-13T15:09:31.359Z,101582.99
2019-05-13T15:12:06.337Z,101582.68
2019-05-13T15:15:08.929Z,101590.84
2019-05-13T15:17:42.632Z,101589.87
2019-05-13T15:20:15.241Z,101578.66
2019-05-13T15:22:47.307Z,101583.56
2019-05-13T15:25:22.335Z,101579.79
2019-05-13T15:31:45.848Z,101584.35
2019-05-13T15:34:48.480Z,101583.66
2019-05-13T15:37:21.463Z,101581.73
2019-05-13T15:40:14.593Z,101579.89
2019-05-13T15:43:17.500Z,101583.13
2019-05-13T15:49:17.830Z,101574.14
2019-05-13T15:51:49.789Z,101580.69
2019-05-13T15:54:22.204Z,101580.48
2019-05-13T15:56:55.289Z,101570.56
2019-05-13T16:02:52.864Z,101570.47
2019-05-13T16:09:13.299Z,101570.83
2019-05-13T16:11:45.139Z,101568.83
2019-05-13T16:14:38.660Z,101571.56
2019-05-13T16:17:41.188Z,101569.61
2019-05-13T16:20:16.885Z,101558.72
2019-05-13T16:23:12.354Z,101559.83
2019-05-13T16:25:44.375Z,101563.22
2019-05-13T16:28:16.484Z,101563.08
2019-05-13T16:30:48.373Z,101556.23
2019-05-13T16:33:20.694Z,101553.62
2019-05-13T16:35:52.759Z,101532.16
2019-05-13T16:44:45.466Z,101549.61
2019-05-13T16:51:18.035Z,101546.52
2019-05-13T16:53:42.088Z,101553.84
2019-05-13T16:56:44.757Z,101542.21
2019-05-13T16:59:31.494Z,101551.00
2019-05-13T17:02:21.943Z,101550.39
2019-05-13T17:05:04.119Z,101550.39
2019-05-13T17:10:47.240Z,101543.42
2019-05-13T17:17:01.393Z,101545.81
2019-05-13T17:19:53.985Z,101546.84
2019-05-13T17:22:44.316Z,101544.27
2019-05-13T17:28:25.505Z,101543.88
2019-05-13T17:30:57.396Z,101541.15
2019-05-13T17:34:07.082Z,101541.64
2019-05-13T17:37:02.342Z,101550.55
2019-05-13T17:40:11.808Z,101542.29
2019-05-13T17:45:28.133Z,101551.39
2019-05-13T17:48:26.745Z,101547.80
2019-05-13T17:54:51.777Z,101545.98
2019-05-13T17:57:34.795Z,101544.67
2019-05-13T18:00:28.899Z,101537.34
2019-05-13T18:06:06.735Z,101542.41
2019-05-13T18:08:41.186Z,101537.02
2019-05-13T18:11:14.708Z,101542.47
2019-05-13T18:14:06.824Z,101534.81
2019-05-13T18:17:02.093Z,101535.19
2019-05-13T18:19:36.060Z,101530.53
2019-05-13T18:25:38.598Z,101533.58
2019-05-13T18:34:25.183Z,101536.28
2019-05-13T18:36:57.773Z,101529.61
2019-05-13T18:39:34.063Z,101541.63
2019-05-13T18:42:41.922Z,101528.68
2019-05-13T18:47:52.849Z,101534.00
2019-05-13T18:51:03.954Z,101533.52
2019-05-13T18:53:35.978Z,101527.52
2019-05-13T18:56:26.583Z,101530.47
2019-05-13T18:58:58.475Z,101528.67
2019-05-13T19:01:32.444Z,101537.27
2019-05-13T19:07:14.890Z,101535.11
2019-05-13T19:10:15.425Z,101537.69
2019-05-13T19:13:06.342Z,101544.64
2019-05-13T19:15:57.173Z,101545.14
2019-05-13T19:18:29.074Z,101536.56
2019-05-13T19:21:30.914Z,101542.31
2019-05-13T19:23:51.326Z,101547.72
2019-05-13T19:26:33.147Z,101549.36
2019-05-13T19:29:07.824Z,101543.64
2019-05-13T19:31:41.726Z,101546.67
2019-05-13T19:36:57.463Z,101546.30
2019-05-13T19:51:01.585Z,101545.92
2019-05-13T19:53:52.573Z,101552.42
2019-05-13T19:56:46.061Z,101556.94
2019-05-13T20:08:43.590Z,101547.09
2019-05-13T20:11:25.752Z,101547.26
2019-05-13T20:18:01.389Z,101539.91
2019-05-13T20:20:38.552Z,101539.91
2019-05-13T20:23:41.433Z,101538.56
2019-05-13T20:29:57.323Z,101540.38
2019-05-13T20:37:55.853Z,101549.53
2019-05-13T20:41:07.009Z,101561.94
2019-05-13T20:50:47.067Z,101544.06
2019-05-13T20:53:37.934Z,101551.52
2019-05-13T21:02:16.571Z,101545.87
2019-05-13T21:04:48.423Z,101542.80
2019-05-13T21:08:21.507Z,101553.20
2019-05-13T21:10:51.687Z,101553.20
2019-05-13T21:13:23.818Z,101549.52
2019-05-13T21:16:18.222Z,101542.71
2019-05-13T21:25:21.318Z,101534.11
2019-05-13T21:28:31.267Z,101536.61
2019-05-13T21:34:12.294Z,101540.02
2019-05-13T21:37:12.842Z,101541.05
2019-05-13T21:39:44.627Z,101537.94
2019-05-13T21:42:18.891Z,101536.24
2019-05-13T21:45:29.538Z,101539.53
2019-05-13T21:48:10.910Z,101548.99
2019-05-13T21:50:59.967Z,101532.15
2019-05-13T21:59:45.405Z,101540.82
2019-05-13T22:02:31.818Z,101541.73
2019-05-13T22:05:03.754Z,101539.36
2019-05-13T22:10:38.604Z,101541.59
2019-05-13T22:13:11.890Z,101542.27
2019-05-13T22:18:36.693Z,101538.98
2019-05-13T22:21:28.901Z,101540.57
2019-05-13T22:27:53.319Z,101531.09
2019-05-13T22:30:38.227Z,101529.66
2019-05-13T22:33:34.615Z,101531.78
2019-05-13T22:54:44.943Z,101522.25
2019-05-13T23:00:22.187Z,101523.48
2019-05-13T23:02:42.136Z,101524.38
2019-05-13T23:05:37.794Z,101518.03
2019-05-13T23:11:21.917Z,101511.13
2019-05-13T23:14:16.686Z,101514.14
2019-05-13T23:19:33.175Z,101514.22
2019-05-13T23:22:05.134Z,101515.06
2019-05-13T23:24:36.996Z,101506.77
2019-05-13T23:30:34.636Z,101497.68
2019-05-13T23:34:05.185Z,101486.50
2019-05-13T23:39:11.867Z,101492.81
2019-05-13T23:42:01.811Z,101486.34
2019-05-13T23:44:33.578Z,101493.20
2019-05-13T23:47:05.455Z,101494.91
2019-05-13T23:49:56.209Z,101490.86
2019-05-13T23:52:27.979Z,101480.59
2019-05-13T23:55:02.131Z,101474.25
2019-05-13T23:57:33.409Z,101483.77
